Time;durP1;ratioP1;P1;durP2;ratioP2;P2;SDS_P1;SDS_P2;PMS_P1;PMS_P2;Temp;Humidity;BMP_temperature;BMP_pressure;BME280_temperature;BME280_humidity;BME280_pressure;Samples;Min_cycle;Max_cycle;Signal;HPM_P1;HPM_P2
2022/08/20 00:00:29;;;;;;;7.72;7.13;;;24.10;99.90;;;;;;5052996;28;20660;-67
2022/08/20 00:02:57;;;;;;;7.22;6.72;;;24.20;99.90;;;;;;5062758;28;20687;-66
2022/08/20 00:05:29;;;;;;;7.43;6.82;;;24.20;99.90;;;;;;5059216;28;20211;-66
2022/08/20 00:07:55;;;;;;;7.03;6.53;;;24.20;99.90;;;;;;5047606;28;20216;-66
2022/08/20 00:10:21;;;;;;;7.90;7.25;;;24.20;99.90;;;;;;5062639;28;20206;-66
2022/08/20 00:12:49;;;;;;;7.22;6.63;;;24.20;99.90;;;;;;5061710;28;20191;-67
2022/08/20 00:15:20;;;;;;;8.40;7.70;;;24.30;99.90;;;;;;5061940;28;20222;-66
2022/08/20 00:17:49;;;;;;;7.90;7.20;;;24.30;99.90;;;;;;5051228;28;20205;-67
2022/08/20 00:20:15;;;;;;;7.30;6.78;;;24.30;99.90;;;;;;5060305;28;20198;-67
2022/08/20 00:22:41;;;;;;;7.72;7.13;;;24.30;99.90;;;;;;5050533;28;20209;-66
2022/08/20 00:25:09;;;;;;;7.20;6.47;;;24.30;99.90;;;;;;5052274;28;20191;-67
2022/08/20 00:27:34;;;;;;;8.05;7.45;;;24.30;99.90;;;;;;5051382;28;20444;-67
2022/08/20 00:30:01;;;;;;;7.07;6.50;;;24.40;99.90;;;;;;5058090;28;20183;-66
2022/08/20 00:32:26;;;;;;;7.80;7.00;;;24.40;99.90;;;;;;5049245;28;20211;-67
2022/08/20 00:34:51;;;;;;;7.40;6.75;;;24.40;99.90;;;;;;5064556;28;20241;-65
2022/08/20 00:37:17;;;;;;;8.38;7.57;;;24.40;99.90;;;;;;5052097;28;20228;-66
2022/08/20 00:39:42;;;;;;;7.93;7.30;;;24.40;99.90;;;;;;5051828;28;20176;-66
2022/08/20 00:42:08;;;;;;;7.75;7.20;;;24.40;99.90;;;;;;5053545;28;20965;-72
2022/08/20 00:44:34;;;;;;;8.30;7.70;;;24.40;99.90;;;;;;5062286;28;20188;-70
2022/08/20 00:47:00;;;;;;;7.45;6.85;;;24.40;99.90;;;;;;5047438;28;20211;-70
2022/08/20 00:49:30;;;;;;;8.35;7.57;;;24.40;99.90;;;;;;5051783;28;20716;-68
2022/08/20 00:52:00;;;;;;;7.68;6.85;;;24.40;99.90;;;;;;5063592;28;20207;-65
2022/08/20 00:54:55;;;;;;;8.45;7.68;;;24.40;99.90;;;;;;5058102;28;20187;-65
2022/08/20 00:57:28;;;;;;;8.20;7.50;;;24.40;99.90;;;;;;5062693;28;20310;-64
2022/08/20 00:59:56;;;;;;;6.90;6.30;;;24.40;99.90;;;;;;5067303;28;20206;-66
2022/08/20 01:02:25;;;;;;;6.93;6.13;;;24.40;99.90;;;;;;5058777;28;20299;-66
2022/08/20 01:04:53;;;;;;;6.70;6.20;;;24.40;99.90;;;;;;5057540;28;20182;-66
2022/08/20 01:07:24;;;;;;;8.68;7.90;;;24.40;99.90;;;;;;5055055;28;20206;-66
2022/08/20 01:09:49;;;;;;;7.32;6.72;;;24.40;99.90;;;;;;5052822;28;20202;-66
2022/08/20 01:12:16;;;;;;;7.47;6.40;;;24.40;99.90;;;;;;5056586;28;20211;-66
2022/08/20 01:14:44;;;;;;;8.20;7.50;;;24.40;99.90;;;;;;5056744;28;20524;-66
2022/08/20 01:17:15;;;;;;;7.57;6.97;;;24.40;99.90;;;;;;5050138;28;20207;-65
2022/08/20 01:19:45;;;;;;;7.45;6.82;;;24.40;99.90;;;;;;5067673;28;20237;-65
2022/08/20 01:25:39;;;;;;;6.57;6.18;;;24.40;99.90;;;;;;5055963;28;20223;-65
2022/08/20 01:28:04;;;;;;;7.25;6.65;;;24.40;99.90;;;;;;5064648;28;20306;-65
2022/08/20 01:30:32;;;;;;;7.30;6.78;;;24.40;99.90;;;;;;5050121;28;20299;-65
2022/08/20 01:32:58;;;;;;;6.70;6.20;;;24.40;99.90;;;;;;5056135;28;20214;-65
2022/08/20 01:35:24;;;;;;;7.28;6.68;;;24.50;99.90;;;;;;5060605;28;20192;-66
2022/08/20 01:37:50;;;;;;;6.47;5.97;;;24.50;99.90;;;;;;5055060;28;20206;-66
2022/08/20 01:40:28;;;;;;;6.72;6.22;;;24.50;99.90;;;;;;5048390;28;20258;-66
2022/08/20 01:42:53;;;;;;;6.53;6.03;;;24.50;99.90;;;;;;5051163;28;20291;-65
2022/08/20 01:45:20;;;;;;;6.70;6.13;;;24.40;99.90;;;;;;5049254;28;20711;-65
2022/08/20 01:47:45;;;;;;;6.55;5.80;;;24.40;99.90;;;;;;5051522;28;20192;-65
2022/08/20 01:50:19;;;;;;;7.40;6.60;;;24.40;99.90;;;;;;5050416;28;20216;-65
2022/08/20 01:53:07;;;;;;;5.97;5.57;;;24.40;99.90;;;;;;5047147;28;20254;-66
2022/08/20 01:55:33;;;;;;;6.13;5.72;;;24.40;99.90;;;;;;5061221;28;20655;-66
2022/08/20 01:57:59;;;;;;;6.05;5.65;;;24.40;99.90;;;;;;5053597;28;20222;-65
2022/08/20 02:00:25;;;;;;;6.25;5.68;;;24.40;99.90;;;;;;5062917;28;20683;-65
2022/08/20 02:02:53;;;;;;;6.00;5.60;;;24.40;99.90;;;;;;5063943;28;20191;-66
2022/08/20 02:05:19;;;;;;;6.30;5.70;;;24.40;99.90;;;;;;5050131;28;20189;-65
2022/08/20 02:07:44;;;;;;;5.22;4.82;;;24.40;99.90;;;;;;5053912;28;20248;-65
2022/08/20 02:10:14;;;;;;;6.85;6.25;;;24.40;99.90;;;;;;5054112;28;20232;-65
2022/08/20 02:12:39;;;;;;;6.65;6.10;;;24.40;99.90;;;;;;5055888;28;20302;-68
2022/08/20 02:15:09;;;;;;;6.38;5.88;;;24.40;99.90;;;;;;5054732;28;20183;-67
2022/08/20 02:17:35;;;;;;;6.25;5.75;;;24.40;99.90;;;;;;5053804;28;20207;-66
2022/08/20 02:20:15;;;;;;;6.70;6.20;;;24.40;99.90;;;;;;5065129;28;20597;-65
2022/08/20 02:22:51;;;;;;;6.53;6.03;;;24.40;99.90;;;;;;5051860;28;20669;-67
2022/08/20 02:25:19;;;;;;;6.35;5.95;;;24.40;99.90;;;;;;5059220;28;20596;-67
2022/08/20 02:27:47;;;;;;;7.28;6.68;;;24.50;99.90;;;;;;5050376;28;20719;-65
2022/08/20 02:30:23;;;;;;;6.50;6.00;;;24.50;99.90;;;;;;5061927;28;20300;-67
2022/08/20 02:32:49;;;;;;;7.38;6.78;;;24.50;99.90;;;;;;5064883;28;20554;-64
2022/08/20 02:35:15;;;;;;;6.35;5.85;;;24.50;99.90;;;;;;5066326;28;20187;-65
2022/08/20 02:37:42;;;;;;;6.78;6.28;;;24.50;99.90;;;;;;5055861;28;20290;-62
2022/08/20 02:40:11;;;;;;;6.78;6.13;;;24.50;99.90;;;;;;5065768;28;20186;-63
2022/08/20 02:42:41;;;;;;;6.60;6.00;;;24.50;99.90;;;;;;5055194;28;20279;-63
2022/08/20 02:45:07;;;;;;;6.57;5.85;;;24.50;99.90;;;;;;5062084;28;20274;-64
2022/08/20 02:47:33;;;;;;;6.38;5.88;;;24.50;99.90;;;;;;5056350;28;20195;-64
2022/08/20 02:49:58;;;;;;;6.78;6.28;;;24.50;99.90;;;;;;5049747;28;20289;-63
2022/08/20 02:52:24;;;;;;;6.82;6.32;;;24.50;99.90;;;;;;5049598;28;20203;-64
2022/08/20 02:54:51;;;;;;;7.22;6.50;;;24.50;99.90;;;;;;5063565;28;20281;-63
2022/08/20 02:57:21;;;;;;;7.10;6.45;;;24.50;99.90;;;;;;5052496;28;20195;-63
2022/08/20 02:59:47;;;;;;;6.72;6.22;;;24.50;99.90;;;;;;5065500;28;20174;-64
2022/08/20 03:02:13;;;;;;;6.53;6.03;;;24.50;99.90;;;;;;5058386;28;20207;-64
2022/08/20 03:04:40;;;;;;;7.32;6.63;;;24.50;99.90;;;;;;5050046;28;20644;-66
2022/08/20 03:07:06;;;;;;;7.20;6.70;;;24.50;99.90;;;;;;5048588;28;20259;-64
2022/08/20 03:09:32;;;;;;;7.72;7.03;;;24.50;99.90;;;;;;5062891;28;20204;-63
2022/08/20 03:11:58;;;;;;;7.97;7.32;;;24.50;99.90;;;;;;5057920;28;20340;-63
2022/08/20 03:14:24;;;;;;;7.15;6.50;;;24.50;99.90;;;;;;5054734;28;20247;-63
2022/08/20 03:16:49;;;;;;;7.00;6.45;;;24.50;99.90;;;;;;5056841;28;20255;-64
2022/08/20 03:19:15;;;;;;;8.02;7.35;;;24.50;99.90;;;;;;5063204;28;20204;-65
2022/08/20 03:21:41;;;;;;;7.25;6.65;;;24.50;99.90;;;;;;5057875;28;20208;-65
2022/08/20 03:24:06;;;;;;;7.75;7.15;;;24.50;99.90;;;;;;5062435;28;20210;-64
2022/08/20 03:26:32;;;;;;;8.13;7.45;;;24.50;99.90;;;;;;5048294;28;20702;-65
2022/08/20 03:28:57;;;;;;;8.82;8.23;;;24.50;99.90;;;;;;5063333;28;20696;-64
2022/08/20 03:31:23;;;;;;;8.65;7.88;;;24.50;99.90;;;;;;5051090;28;20198;-65
2022/08/20 03:33:48;;;;;;;7.93;7.30;;;24.50;99.90;;;;;;5044259;28;20207;-64
2022/08/20 03:36:14;;;;;;;8.63;7.93;;;24.50;99.90;;;;;;5047580;28;20277;-66
2022/08/20 03:38:39;;;;;;;9.07;8.32;;;24.50;99.90;;;;;;5063361;28;20204;-66
2022/08/20 03:41:05;;;;;;;7.93;7.32;;;24.50;99.90;;;;;;5054654;28;20207;-66
2022/08/20 03:43:31;;;;;;;8.38;7.55;;;24.60;99.90;;;;;;5052463;28;20236;-66
2022/08/20 03:45:57;;;;;;;9.10;7.00;;;24.50;99.90;;;;;;5047370;28;20697;-66
2022/08/20 03:48:25;;;;;;;7.70;7.10;;;24.50;99.90;;;;;;5062701;28;20278;-67
2022/08/20 03:50:50;;;;;;;8.85;8.15;;;24.50;99.90;;;;;;5056484;28;20985;-66
2022/08/20 03:53:16;;;;;;;8.48;7.72;;;24.50;99.90;;;;;;5062225;28;20253;-66
2022/08/20 03:55:45;;;;;;;8.95;8.25;;;24.50;99.90;;;;;;5052898;28;20504;-67
2022/08/20 03:58:12;;;;;;;9.10;8.25;;;24.50;99.90;;;;;;5053016;28;20196;-67
2022/08/20 04:00:47;;;;;;;7.68;7.07;;;24.50;99.90;;;;;;5065003;28;20184;-67
2022/08/20 04:03:14;;;;;;;9.82;9.02;;;24.50;99.90;;;;;;5042930;28;20207;-67
2022/08/20 04:05:40;;;;;;;9.40;8.60;;;24.50;99.90;;;;;;5052421;28;20674;-66
2022/08/20 04:08:18;;;;;;;9.95;7.40;;;24.50;99.90;;;;;;5054179;28;20203;-67
2022/08/20 04:10:45;;;;;;;8.85;8.05;;;24.50;99.90;;;;;;5056236;28;20297;-63
2022/08/20 04:13:12;;;;;;;10.18;9.20;;;24.50;99.90;;;;;;5051202;28;20197;-64
2022/08/20 04:15:37;;;;;;;10.13;8.43;;;24.50;99.90;;;;;;5055524;28;20289;-64
2022/08/20 04:18:06;;;;;;;8.77;8.07;;;24.50;99.90;;;;;;5049728;28;20296;-64
2022/08/20 04:20:34;;;;;;;8.75;8.13;;;24.60;99.90;;;;;;5063513;28;20182;-64
2022/08/20 04:23:00;;;;;;;8.55;7.78;;;24.50;99.90;;;;;;5057331;28;20200;-62
2022/08/20 04:25:27;;;;;;;9.48;8.63;;;24.60;99.90;;;;;;5054443;28;20181;-64
2022/08/20 04:27:53;;;;;;;9.20;8.40;;;24.60;99.90;;;;;;5054599;28;20282;-61
2022/08/20 04:30:22;;;;;;;9.80;8.90;;;24.60;99.90;;;;;;5063673;28;20313;-68
2022/08/20 04:32:48;;;;;;;8.70;7.93;;;24.60;99.90;;;;;;5055440;28;20273;-65
2022/08/20 04:35:14;;;;;;;7.63;6.93;;;24.50;99.90;;;;;;5068300;28;20694;-69
2022/08/20 04:37:41;;;;;;;8.85;8.02;;;24.60;99.90;;;;;;5056818;28;20194;-63
2022/08/20 04:42:54;;;;;;;9.35;8.45;;;24.60;99.90;;;;;;5066471;28;20578;-62
2022/08/20 04:45:20;;;;;;;9.13;7.90;;;24.60;99.90;;;;;;5058971;28;20518;-62
2022/08/20 04:47:46;;;;;;;8.23;7.55;;;24.60;99.90;;;;;;5054176;28;20205;-65
2022/08/20 04:50:13;;;;;;;9.88;8.98;;;24.60;99.90;;;;;;5068094;28;20596;-65
2022/08/20 04:52:39;;;;;;;9.13;8.32;;;24.60;99.90;;;;;;5054330;28;20188;-65
2022/08/20 04:55:05;;;;;;;9.52;8.70;;;24.60;99.90;;;;;;5060873;28;20213;-65
2022/08/20 04:57:31;;;;;;;10.13;9.15;;;24.60;99.90;;;;;;5056735;28;20303;-65
2022/08/20 04:59:56;;;;;;;8.65;7.85;;;24.60;99.90;;;;;;5065144;28;20765;-65
2022/08/20 05:02:22;;;;;;;11.15;10.15;;;24.60;99.90;;;;;;5064917;28;20287;-65
2022/08/20 05:04:48;;;;;;;9.40;8.50;;;24.60;99.90;;;;;;5058135;28;20214;-65
2022/08/20 05:07:15;;;;;;;10.93;9.75;;;24.60;99.90;;;;;;5055246;28;20202;-65
2022/08/20 05:09:41;;;;;;;8.88;8.10;;;24.60;99.90;;;;;;5064918;28;20653;-63
2022/08/20 05:12:07;;;;;;;8.65;7.93;;;24.60;99.90;;;;;;5055344;28;20302;-63
2022/08/20 05:14:32;;;;;;;8.40;7.60;;;24.60;99.90;;;;;;5048683;28;20872;-63
2022/08/20 05:17:03;;;;;;;8.23;7.50;;;24.60;99.90;;;;;;5059085;28;20208;-63
2022/08/20 05:19:30;;;;;;;9.07;8.27;;;24.60;99.90;;;;;;5052026;28;20202;-64
2022/08/20 05:21:56;;;;;;;9.85;8.95;;;24.60;99.90;;;;;;5065774;28;20212;-63
2022/08/20 05:24:22;;;;;;;8.43;7.72;;;24.60;99.90;;;;;;5051288;28;20703;-63
2022/08/20 05:26:48;;;;;;;10.07;9.18;;;24.60;99.90;;;;;;5064730;28;20288;-63
2022/08/20 05:29:14;;;;;;;10.95;10.05;;;24.60;99.90;;;;;;5050280;28;20286;-63
2022/08/20 05:31:41;;;;;;;7.25;6.68;;;24.60;99.90;;;;;;5049863;28;20632;-63
2022/08/20 05:34:08;;;;;;;10.65;9.75;;;24.60;99.90;;;;;;5065705;28;20709;-63
2022/08/20 05:36:35;;;;;;;9.85;8.85;;;24.60;99.90;;;;;;5058862;28;20437;-63
2022/08/20 05:39:01;;;;;;;8.15;7.43;;;24.60;99.90;;;;;;5054953;28;20280;-62
2022/08/20 05:41:29;;;;;;;9.25;8.45;;;24.60;99.90;;;;;;5047564;28;20311;-62
2022/08/20 05:43:59;;;;;;;9.27;8.48;;;24.60;99.90;;;;;;5054805;28;20207;-63
2022/08/20 05:46:24;;;;;;;9.82;9.02;;;24.60;99.90;;;;;;5057078;28;20199;-63
2022/08/20 05:48:50;;;;;;;9.15;8.40;;;24.60;99.90;;;;;;5054311;28;20232;-63
2022/08/20 05:51:15;;;;;;;10.05;9.05;;;24.60;99.90;;;;;;5054230;28;20217;-63
2022/08/20 05:53:41;;;;;;;9.00;8.20;;;24.60;99.90;;;;;;5055553;28;20199;-68
2022/08/20 05:56:09;;;;;;;8.25;7.45;;;24.60;99.90;;;;;;5063504;28;20212;-68
2022/08/20 05:58:34;;;;;;;9.25;8.43;;;24.60;99.90;;;;;;5053551;28;20205;-67
2022/08/20 06:01:00;;;;;;;8.40;7.78;;;24.60;99.90;;;;;;5066779;28;20631;-68
2022/08/20 06:06:10;;;;;;;10.15;9.35;;;24.60;99.90;;;;;;5058865;28;20622;-67
2022/08/20 06:08:36;;;;;;;8.73;7.93;;;24.60;99.90;;;;;;5053585;28;20657;-67
2022/08/20 06:11:02;;;;;;;9.57;8.77;;;24.60;99.90;;;;;;5061262;28;20211;-66
2022/08/20 06:13:27;;;;;;;9.70;8.80;;;24.60;99.90;;;;;;5054908;28;20199;-67
2022/08/20 06:15:54;;;;;;;10.18;9.20;;;24.60;99.90;;;;;;5059406;28;20569;-67
2022/08/20 06:18:20;;;;;;;9.43;8.63;;;24.60;99.90;;;;;;5059085;28;20289;-66
2022/08/20 06:20:46;;;;;;;10.25;9.35;;;24.60;99.90;;;;;;5063689;28;20187;-67
2022/08/20 06:23:12;;;;;;;9.35;8.55;;;24.60;99.90;;;;;;5064516;28;20656;-67
2022/08/20 06:25:37;;;;;;;9.68;8.77;;;24.60;99.90;;;;;;5054773;28;20664;-66
2022/08/20 06:28:04;;;;;;;7.72;7.13;;;24.60;99.90;;;;;;5049993;28;20202;-66
2022/08/20 06:30:30;;;;;;;9.75;8.85;;;24.60;99.90;;;;;;5056513;28;20186;-65
2022/08/20 06:32:57;;;;;;;8.77;7.97;;;24.60;99.90;;;;;;5048181;28;20238;-65
2022/08/20 06:35:23;;;;;;;9.07;8.23;;;24.60;99.90;;;;;;5060998;28;20185;-65
2022/08/20 06:37:49;;;;;;;8.77;8.00;;;24.60;99.90;;;;;;5056898;28;20208;-64
2022/08/20 06:40:24;;;;;;;8.00;7.35;;;24.60;99.90;;;;;;5063611;28;20210;-63
2022/08/20 06:42:50;;;;;;;10.02;9.02;;;24.70;99.90;;;;;;5058925;28;20206;-65
2022/08/20 06:45:25;;;;;;;9.25;8.40;;;24.70;99.90;;;;;;5050825;28;20217;-65
2022/08/20 06:47:52;;;;;;;10.13;9.10;;;24.70;99.90;;;;;;5053334;28;20199;-63
2022/08/20 06:50:25;;;;;;;9.75;8.85;;;24.70;99.90;;;;;;5063984;28;20544;-63
2022/08/20 06:52:51;;;;;;;9.65;8.73;;;24.70;99.90;;;;;;5063713;28;20209;-64
2022/08/20 06:55:17;;;;;;;16.58;9.48;;;24.70;99.90;;;;;;5059057;28;20204;-65
2022/08/20 06:57:43;;;;;;;10.35;9.27;;;24.70;99.90;;;;;;5055307;28;20201;-65
2022/08/20 07:00:16;;;;;;;10.73;9.20;;;24.70;99.90;;;;;;5053866;28;20697;-68
2022/08/20 07:02:41;;;;;;;9.40;8.60;;;24.70;99.90;;;;;;5057431;28;20196;-68
2022/08/20 07:05:09;;;;;;;9.90;9.00;;;24.70;99.90;;;;;;5054600;28;20198;-82
2022/08/20 07:07:36;;;;;;;9.70;8.80;;;24.70;99.90;;;;;;5061463;28;20199;-63
2022/08/20 07:10:09;;;;;;;10.30;9.45;;;24.70;99.90;;;;;;5059341;28;20205;-64
2022/08/20 07:12:35;;;;;;;9.35;8.55;;;24.70;99.90;;;;;;5059127;28;20205;-63
2022/08/20 07:15:06;;;;;;;9.20;8.50;;;24.70;99.90;;;;;;5055767;28;20201;-64
2022/08/20 07:17:32;;;;;;;9.75;8.82;;;24.70;99.90;;;;;;5064128;28;20184;-64
2022/08/20 07:19:57;;;;;;;9.20;8.38;;;24.70;99.90;;;;;;5056245;28;20528;-64
2022/08/20 07:22:23;;;;;;;11.02;8.40;;;24.70;99.90;;;;;;5059830;28;20246;-62
2022/08/20 07:24:49;;;;;;;10.77;9.77;;;24.70;99.90;;;;;;5044821;28;20562;-63
2022/08/20 07:27:22;;;;;;;10.50;9.50;;;24.70;99.90;;;;;;5049962;28;20189;-64
2022/08/20 07:32:38;;;;;;;10.20;9.30;;;24.70;99.90;;;;;;5045274;28;20240;-67
2022/08/20 07:35:09;;;;;;;11.20;10.20;;;24.70;99.90;;;;;;5052486;28;20199;-67
2022/08/20 07:37:40;;;;;;;11.45;10.45;;;24.70;99.90;;;;;;5056219;28;20256;-67
2022/08/20 07:40:10;;;;;;;10.98;9.80;;;24.70;99.90;;;;;;5063124;28;20204;-67
2022/08/20 07:42:38;;;;;;;12.43;11.13;;;24.60;99.90;;;;;;5059972;28;20210;-67
2022/08/20 07:45:05;;;;;;;11.15;10.15;;;24.60;99.90;;;;;;5049754;28;20261;-67
2022/08/20 07:47:33;;;;;;;10.88;9.38;;;24.60;99.90;;;;;;5065000;28;20205;-66
2022/08/20 07:49:58;;;;;;;14.80;13.38;;;24.60;99.90;;;;;;5051605;28;20258;-66
2022/08/20 07:52:24;;;;;;;18.95;15.23;;;24.60;99.90;;;;;;5061643;28;20214;-68
2022/08/20 07:54:49;;;;;;;17.73;15.90;;;24.40;99.90;;;;;;5056242;28;20248;-68
2022/08/20 07:57:16;;;;;;;20.67;18.63;;;24.20;99.90;;;;;;5049623;28;20201;-69
2022/08/20 07:59:41;;;;;;;18.42;16.73;;;24.10;99.90;;;;;;5052514;28;20622;-68
2022/08/20 08:02:07;;;;;;;20.95;18.83;;;24.00;99.90;;;;;;5061231;28;20206;-67
2022/08/20 08:04:33;;;;;;;21.10;19.10;;;23.90;99.90;;;;;;5049655;28;20203;-70
2022/08/20 08:06:59;;;;;;;17.63;15.77;;;23.90;99.90;;;;;;5058240;28;20194;-74
2022/08/20 08:09:25;;;;;;;20.58;18.42;;;23.80;99.90;;;;;;5052318;28;20195;-69
2022/08/20 08:11:56;;;;;;;18.63;16.80;;;23.80;99.90;;;;;;5047839;28;20246;-70
2022/08/20 08:14:27;;;;;;;18.67;16.75;;;23.70;99.90;;;;;;5062631;28;20585;-68
2022/08/20 08:16:59;;;;;;;21.08;18.90;;;23.70;99.90;;;;;;5062127;28;20601;-67
2022/08/20 08:19:37;;;;;;;20.13;18.08;;;23.60;99.90;;;;;;5044392;28;20202;-68
2022/08/20 08:22:05;;;;;;;20.92;18.25;;;23.60;99.90;;;;;;5063358;28;20552;-65
2022/08/20 08:24:30;;;;;;;19.70;17.70;;;23.60;99.90;;;;;;5052151;28;20290;-73
2022/08/20 08:26:56;;;;;;;19.52;16.92;;;23.50;99.90;;;;;;5048897;28;20278;-72
2022/08/20 08:29:21;;;;;;;21.70;19.50;;;23.50;99.90;;;;;;5047650;28;20207;-72
2022/08/20 08:31:47;;;;;;;20.92;18.85;;;23.40;99.90;;;;;;5046649;28;20219;-72
2022/08/20 08:34:12;;;;;;;21.67;19.48;;;23.40;99.90;;;;;;5050930;28;20394;-73
2022/08/20 08:36:39;;;;;;;20.27;18.15;;;23.40;99.90;;;;;;5064353;28;20187;-71
2022/08/20 08:39:04;;;;;;;18.02;16.13;;;23.40;99.90;;;;;;5057290;28;20202;-68
2022/08/20 08:41:38;;;;;;;19.80;17.67;;;23.40;99.90;;;;;;5061429;28;20182;-75
2022/08/20 08:44:09;;;;;;;21.33;19.05;;;23.30;99.90;;;;;;5056050;28;20241;-69
2022/08/20 08:46:40;;;;;;;19.60;17.67;;;23.30;99.90;;;;;;5062382;28;20182;-67
2022/08/20 08:49:08;;;;;;;22.50;20.20;;;23.30;99.90;;;;;;5057367;28;20226;-70
2022/08/20 08:51:41;;;;;;;20.15;17.98;;;23.30;99.90;;;;;;5055224;28;20700;-70
2022/08/20 08:54:11;;;;;;;21.80;19.58;;;23.30;99.90;;;;;;5054737;28;20191;-76
2022/08/20 08:56:38;;;;;;;20.52;18.33;;;23.40;99.90;;;;;;5055831;28;20189;-76
2022/08/20 08:59:10;;;;;;;19.38;17.55;;;23.40;99.90;;;;;;5049485;28;20200;-76
2022/08/20 09:01:55;;;;;;;16.88;15.05;;;23.30;99.90;;;;;;5048815;28;20553;-77
2022/08/20 09:04:23;;;;;;;21.30;18.63;;;23.30;99.90;;;;;;5050591;28;20209;-75
2022/08/20 09:06:52;;;;;;;19.07;17.30;;;23.30;99.90;;;;;;5061491;28;20199;-68
2022/08/20 09:09:26;;;;;;;19.63;17.52;;;23.30;99.90;;;;;;5055413;28;20194;-69
2022/08/20 09:11:54;;;;;;;20.30;17.58;;;23.30;99.90;;;;;;5064950;28;20290;-69
2022/08/20 09:14:23;;;;;;;21.45;17.55;;;23.30;99.90;;;;;;5056603;28;20261;-67
2022/08/20 09:16:49;;;;;;;16.67;15.07;;;23.30;99.90;;;;;;5062070;28;20264;-69
2022/08/20 09:19:15;;;;;;;18.20;16.40;;;23.40;99.90;;;;;;5062682;28;20241;-66
2022/08/20 09:21:40;;;;;;;23.50;17.77;;;23.40;99.90;;;;;;5066868;28;20185;-69
2022/08/20 09:24:05;;;;;;;18.42;16.63;;;23.40;99.90;;;;;;5062312;28;20877;-71
2022/08/20 09:26:31;;;;;;;16.33;14.77;;;23.40;99.90;;;;;;5064123;28;20177;-68
2022/08/20 09:28:56;;;;;;;19.37;17.53;;;23.40;99.90;;;;;;5062394;28;20237;-68
2022/08/20 09:31:23;;;;;;;17.70;15.75;;;23.40;99.90;;;;;;5064717;28;20207;-70
2022/08/20 09:33:49;;;;;;;17.30;15.60;;;23.40;99.90;;;;;;5062318;28;20216;-75
2022/08/20 09:36:15;;;;;;;18.42;16.55;;;23.40;99.90;;;;;;5067246;28;20179;-75
2022/08/20 09:38:40;;;;;;;16.95;15.40;;;23.40;99.90;;;;;;5057130;28;20192;-75
2022/08/20 09:41:05;;;;;;;17.95;16.13;;;23.40;99.90;;;;;;5054936;28;20193;-74
2022/08/20 09:43:31;;;;;;;16.95;15.27;;;23.40;99.90;;;;;;5057136;28;20286;-67
2022/08/20 09:45:56;;;;;;;18.17;16.40;;;23.40;99.90;;;;;;5054570;28;20222;-70
2022/08/20 09:48:22;;;;;;;17.20;15.40;;;23.50;99.90;;;;;;5056751;28;20197;-69
2022/08/20 09:50:48;;;;;;;14.68;13.18;;;23.50;99.90;;;;;;5060488;28;20218;-72
2022/08/20 09:53:15;;;;;;;14.73;13.25;;;23.50;99.90;;;;;;5063083;28;20214;-68
2022/08/20 09:55:48;;;;;;;15.25;13.85;;;23.60;99.90;;;;;;5061683;28;20190;-69
2022/08/20 09:58:37;;;;;;;16.42;14.55;;;23.60;99.90;;;;;;5054730;28;20205;-63
2022/08/20 10:01:09;;;;;;;12.82;11.10;;;23.80;99.90;;;;;;5053562;28;21020;-77
2022/08/20 10:03:34;;;;;;;11.65;10.45;;;23.90;99.90;;;;;;5056582;28;20567;-75
2022/08/20 10:06:00;;;;;;;12.38;11.25;;;24.10;99.90;;;;;;5055866;28;20205;-73
2022/08/20 10:08:25;;;;;;;12.55;11.35;;;24.20;99.90;;;;;;5052825;28;20292;-72
2022/08/20 10:10:51;;;;;;;9.65;8.70;;;24.30;99.90;;;;;;5064098;28;20237;-73
2022/08/20 10:13:16;;;;;;;10.30;9.35;;;24.40;99.90;;;;;;5055867;28;20688;-73
2022/08/20 10:15:42;;;;;;;11.02;9.73;;;24.40;99.90;;;;;;5051819;28;20284;-73
2022/08/20 10:18:07;;;;;;;10.82;9.93;;;24.50;99.90;;;;;;5049499;28;20189;-73
2022/08/20 10:20:34;;;;;;;10.60;9.70;;;24.50;99.90;;;;;;5055872;28;20293;-73
2022/08/20 10:23:00;;;;;;;10.23;9.23;;;24.60;99.90;;;;;;5055634;28;20199;-72
2022/08/20 10:25:25;;;;;;;12.93;11.63;;;24.60;99.90;;;;;;5064307;28;20206;-72
2022/08/20 10:27:51;;;;;;;11.68;9.35;;;24.70;99.90;;;;;;5059693;28;20374;-71
2022/08/20 10:30:16;;;;;;;9.02;8.05;;;24.70;99.90;;;;;;5048977;28;20574;-73
2022/08/20 10:32:42;;;;;;;10.30;9.40;;;24.70;99.90;;;;;;5052801;28;20312;-73
2022/08/20 10:35:08;;;;;;;10.52;8.30;;;24.70;99.90;;;;;;5061499;28;20223;-73
2022/08/20 10:37:34;;;;;;;9.40;8.57;;;24.70;99.90;;;;;;5053336;28;20243;-74
2022/08/20 10:39:59;;;;;;;9.60;8.73;;;24.70;99.90;;;;;;5052490;28;20601;-71
2022/08/20 10:42:25;;;;;;;8.70;7.85;;;24.80;99.90;;;;;;5055502;28;20653;-73
2022/08/20 10:44:50;;;;;;;9.48;8.68;;;24.80;99.90;;;;;;5055184;28;20403;-73
2022/08/20 10:47:22;;;;;;;7.80;7.10;;;24.80;99.90;;;;;;5049774;28;20285;-73
2022/08/20 10:49:50;;;;;;;9.05;8.02;;;24.80;99.90;;;;;;5052626;28;20316;-73
2022/08/20 10:52:15;;;;;;;7.90;7.10;;;24.80;99.90;;;;;;5052692;28;20273;-73
2022/08/20 10:54:41;;;;;;;7.05;6.45;;;24.80;99.90;;;;;;5063069;28;20204;-74
2022/08/20 10:57:11;;;;;;;10.32;8.60;;;24.80;99.90;;;;;;5058216;28;20179;-72
2022/08/20 10:59:39;;;;;;;7.03;6.45;;;24.80;99.90;;;;;;5052000;28;20284;-73
2022/08/20 11:02:05;;;;;;;8.43;7.75;;;24.90;99.90;;;;;;5060771;28;20537;-74
2022/08/20 11:04:30;;;;;;;6.70;6.10;;;24.90;99.90;;;;;;5048410;28;20226;-74
2022/08/20 11:06:56;;;;;;;7.53;6.82;;;24.90;99.90;;;;;;5065612;28;20192;-75
2022/08/20 11:09:21;;;;;;;6.38;5.88;;;24.90;99.90;;;;;;5053383;28;20209;-74
2022/08/20 11:11:47;;;;;;;8.63;7.75;;;24.90;99.90;;;;;;5053936;28;20215;-74
2022/08/20 11:14:12;;;;;;;7.40;6.80;;;24.90;99.90;;;;;;5053989;28;20430;-74
2022/08/20 11:16:37;;;;;;;7.03;6.43;;;24.90;99.90;;;;;;5054402;28;20274;-73
2022/08/20 11:19:03;;;;;;;7.00;6.32;;;24.90;99.90;;;;;;5056426;28;20254;-74
2022/08/20 11:21:28;;;;;;;7.82;7.10;;;24.90;99.90;;;;;;5055267;28;20556;-74
2022/08/20 11:23:54;;;;;;;6.68;6.18;;;24.90;99.90;;;;;;5051050;28;20238;-73
2022/08/20 11:26:22;;;;;;;8.50;7.80;;;24.90;99.90;;;;;;5053870;28;20250;-72
2022/08/20 11:28:48;;;;;;;7.40;6.68;;;24.90;99.90;;;;;;5054870;28;20205;-73
2022/08/20 11:31:13;;;;;;;8.90;8.13;;;24.90;99.90;;;;;;5058688;28;20233;-74
2022/08/20 11:33:39;;;;;;;6.15;5.65;;;24.90;99.90;;;;;;5052230;28;20247;-73
2022/08/20 11:36:05;;;;;;;5.75;5.32;;;24.90;99.90;;;;;;5060779;28;20246;-74
2022/08/20 11:38:30;;;;;;;6.40;5.70;;;24.90;99.90;;;;;;5055520;28;20198;-74
2022/08/20 11:40:56;;;;;;;6.28;5.35;;;24.90;99.90;;;;;;5048991;28;20581;-73
2022/08/20 11:43:21;;;;;;;6.53;6.03;;;24.90;99.90;;;;;;5058571;28;20189;-72
2022/08/20 11:45:51;;;;;;;6.63;5.18;;;24.90;99.90;;;;;;5045997;28;20202;-72
2022/08/20 11:48:17;;;;;;;5.40;4.90;;;24.90;99.90;;;;;;5055915;28;20593;-71
2022/08/20 11:50:43;;;;;;;5.65;5.25;;;24.90;99.90;;;;;;5047969;28;20299;-72
2022/08/20 11:53:09;;;;;;;4.82;4.47;;;24.90;99.90;;;;;;5052487;28;20654;-71
2022/08/20 11:55:35;;;;;;;5.82;5.43;;;24.90;99.90;;;;;;5045612;28;20691;-69
2022/08/20 11:58:01;;;;;;;5.63;5.20;;;24.90;99.90;;;;;;5051182;28;20203;-77
2022/08/20 12:00:29;;;;;;;5.32;4.93;;;24.90;99.90;;;;;;5043114;28;20196;-72
2022/08/20 12:02:54;;;;;;;5.40;4.95;;;24.90;99.90;;;;;;5046925;28;20188;-74
2022/08/20 12:05:20;;;;;;;5.15;4.80;;;24.90;99.90;;;;;;5062245;28;20199;-74
2022/08/20 12:07:47;;;;;;;4.95;4.55;;;24.90;99.90;;;;;;5057145;28;20182;-74
2022/08/20 12:10:13;;;;;;;4.55;4.22;;;24.90;99.90;;;;;;5058741;28;20510;-74
2022/08/20 12:12:39;;;;;;;5.05;4.65;;;24.90;99.90;;;;;;5054250;28;20697;-72
2022/08/20 12:15:07;;;;;;;11.23;5.35;;;24.90;99.90;;;;;;5046137;28;20295;-67
2022/08/20 12:17:32;;;;;;;4.70;4.32;;;24.90;99.90;;;;;;5057937;28;20228;-70
2022/08/20 12:20:00;;;;;;;5.18;4.78;;;24.90;99.90;;;;;;5056979;28;20365;-71
2022/08/20 12:22:26;;;;;;;5.07;4.55;;;24.80;99.90;;;;;;5053139;28;20196;-70
2022/08/20 12:24:55;;;;;;;4.00;3.70;;;24.70;99.90;;;;;;5058702;28;20291;-68
2022/08/20 12:27:26;;;;;;;4.57;4.18;;;24.70;99.90;;;;;;5061971;28;20196;-66
2022/08/20 12:29:53;;;;;;;4.68;4.32;;;24.70;99.90;;;;;;5058977;28;20204;-71
2022/08/20 12:32:21;;;;;;;4.85;4.45;;;24.70;99.90;;;;;;5059102;28;20217;-68
2022/08/20 12:34:46;;;;;;;4.72;4.43;;;24.70;99.90;;;;;;5059225;28;20200;-69
2022/08/20 12:37:18;;;;;;;4.45;4.15;;;24.70;99.90;;;;;;5062164;28;20714;-70
2022/08/20 12:39:46;;;;;;;4.28;3.88;;;24.70;99.90;;;;;;5059452;28;21047;-67
2022/08/20 12:42:13;;;;;;;4.72;4.28;;;24.60;99.90;;;;;;5066352;28;20194;-69
2022/08/20 12:44:39;;;;;;;4.85;4.25;;;24.60;99.90;;;;;;5062998;28;21019;-67
2022/08/20 12:47:06;;;;;;;4.82;4.53;;;24.50;99.90;;;;;;5067384;28;20178;-76
2022/08/20 12:49:31;;;;;;;4.43;4.03;;;24.50;99.90;;;;;;5060306;28;20802;-73
2022/08/20 12:51:57;;;;;;;4.22;3.90;;;24.40;99.90;;;;;;5067282;28;20306;-74